sensor_id;sensor_type;location;lat;lon;timestamp;P1;durP1;ratioP1;P2;durP2;ratioP2
72547;SDS011;60570;50.848;6.776;2024-03-06T00:00:53;1043.83;;;957.67;;
72547;SDS011;60570;50.848;6.776;2024-03-06T00:01:54;1034.93;;;949.33;;
72547;SDS011;60570;50.848;6.776;2024-03-06T00:02:56;1039.40;;;953.60;;
72547;SDS011;60570;50.848;6.776;2024-03-06T00:03:58;1038.83;;;952.97;;
72547;SDS011;60570;50.848;6.776;2024-03-06T00:04:59;1040.57;;;954.47;;
72547;SDS011;60570;50.848;6.776;2024-03-06T00:06:00;1034.30;;;948.77;;
72547;SDS011;60570;50.848;6.776;2024-03-06T00:07:02;1038.40;;;952.70;;
72547;SDS011;60570;50.848;6.776;2024-03-06T00:08:03;1036.73;;;951.03;;
72547;SDS011;60570;50.848;6.776;2024-03-06T00:09:05;1037.10;;;951.33;;
72547;SDS011;60570;50.848;6.776;2024-03-06T00:10:05;1037.77;;;951.93;;
72547;SDS011;60570;50.848;6.776;2024-03-06T00:11:08;1042.97;;;956.97;;
72547;SDS011;60570;50.848;6.776;2024-03-06T00:12:09;1038.37;;;953.33;;
72547;SDS011;60570;50.848;6.776;2024-03-06T00:13:11;1039.13;;;953.53;;
72547;SDS011;60570;50.848;6.776;2024-03-06T00:14:11;1041.97;;;955.80;;
72547;SDS011;60570;50.848;6.776;2024-03-06T00:15:13;1036.77;;;951.33;;
72547;SDS011;60570;50.848;6.776;2024-03-06T00:16:14;1039.37;;;953.63;;
72547;SDS011;60570;50.848;6.776;2024-03-06T00:17:15;1036.20;;;950.83;;
72547;SDS011;60570;50.848;6.776;2024-03-06T00:18:16;1040.10;;;954.10;;
72547;SDS011;60570;50.848;6.776;2024-03-06T00:19:19;1045.73;;;959.90;;
72547;SDS011;60570;50.848;6.776;2024-03-06T00:20:20;1037.40;;;951.90;;
72547;SDS011;60570;50.848;6.776;2024-03-06T00:21:22;1036.90;;;951.37;;
72547;SDS011;60570;50.848;6.776;2024-03-06T00:22:23;1037.07;;;951.37;;
72547;SDS011;60570;50.848;6.776;2024-03-06T00:23:24;1038.40;;;952.40;;
72547;SDS011;60570;50.848;6.776;2024-03-06T00:24:26;1038.20;;;952.77;;
72547;SDS011;60570;50.848;6.776;2024-03-06T00:25:26;1031.93;;;946.73;;
72547;SDS011;60570;50.848;6.776;2024-03-06T00:26:28;1039.90;;;954.50;;
72547;SDS011;60570;50.848;6.776;2024-03-06T00:27:29;1038.67;;;952.73;;
72547;SDS011;60570;50.848;6.776;2024-03-06T00:28:31;1038.83;;;953.23;;
72547;SDS011;60570;50.848;6.776;2024-03-06T00:29:31;1034.80;;;949.30;;
72547;SDS011;60570;50.848;6.776;2024-03-06T00:30:33;1038.10;;;952.47;;
72547;SDS011;60570;50.848;6.776;2024-03-06T00:31:34;1037.53;;;951.70;;
72547;SDS011;60570;50.848;6.776;2024-03-06T00:32:35;1035.70;;;950.03;;
72547;SDS011;60570;50.848;6.776;2024-03-06T00:33:36;1034.23;;;948.73;;
72547;SDS011;60570;50.848;6.776;2024-03-06T00:34:39;1037.43;;;951.53;;
72547;SDS011;60570;50.848;6.776;2024-03-06T00:35:40;1034.50;;;948.77;;
72547;SDS011;60570;50.848;6.776;2024-03-06T00:36:42;1035.30;;;949.63;;
72547;SDS011;60570;50.848;6.776;2024-03-06T00:37:44;1035.50;;;950.00;;
72547;SDS011;60570;50.848;6.776;2024-03-06T00:38:45;1039.17;;;953.30;;
72547;SDS011;60570;50.848;6.776;2024-03-06T00:39:46;1034.03;;;948.77;;
72547;SDS011;60570;50.848;6.776;2024-03-06T00:40:48;1037.80;;;952.17;;
72547;SDS011;60570;50.848;6.776;2024-03-06T00:41:48;1038.67;;;952.87;;
72547;SDS011;60570;50.848;6.776;2024-03-06T00:42:50;1038.90;;;953.10;;
72547;SDS011;60570;50.848;6.776;2024-03-06T00:43:51;1034.43;;;948.87;;
72547;SDS011;60570;50.848;6.776;2024-03-06T00:44:52;1035.47;;;949.67;;
72547;SDS011;60570;50.848;6.776;2024-03-06T00:45:53;1039.67;;;953.70;;
72547;SDS011;60570;50.848;6.776;2024-03-06T00:46:55;1038.03;;;952.40;;
72547;SDS011;60570;50.848;6.776;2024-03-06T00:47:56;1033.97;;;948.50;;
72547;SDS011;60570;50.848;6.776;2024-03-06T00:48:57;1038.27;;;952.57;;
72547;SDS011;60570;50.848;6.776;2024-03-06T00:49:59;1034.33;;;948.90;;
72547;SDS011;60570;50.848;6.776;2024-03-06T00:51:01;1035.23;;;949.63;;
72547;SDS011;60570;50.848;6.776;2024-03-06T00:52:02;1035.97;;;950.63;;
72547;SDS011;60570;50.848;6.776;2024-03-06T00:53:05;1033.70;;;948.43;;
72547;SDS011;60570;50.848;6.776;2024-03-06T00:54:06;1034.90;;;949.23;;
72547;SDS011;60570;50.848;6.776;2024-03-06T00:55:08;1034.47;;;949.07;;
72547;SDS011;60570;50.848;6.776;2024-03-06T00:56:09;1040.07;;;954.23;;
72547;SDS011;60570;50.848;6.776;2024-03-06T00:57:11;1038.17;;;952.13;;
72547;SDS011;60570;50.848;6.776;2024-03-06T00:58:12;1031.67;;;946.27;;
72547;SDS011;60570;50.848;6.776;2024-03-06T00:59:13;1036.63;;;950.60;;
72547;SDS011;60570;50.848;6.776;2024-03-06T01:00:15;1037.13;;;951.53;;
72547;SDS011;60570;50.848;6.776;2024-03-06T01:01:16;1032.20;;;946.87;;
72547;SDS011;60570;50.848;6.776;2024-03-06T01:02:18;1036.63;;;950.97;;
72547;SDS011;60570;50.848;6.776;2024-03-06T01:03:19;1035.37;;;949.77;;
72547;SDS011;60570;50.848;6.776;2024-03-06T01:04:20;1031.60;;;946.40;;
72547;SDS011;60570;50.848;6.776;2024-03-06T01:05:23;1031.33;;;946.27;;
72547;SDS011;60570;50.848;6.776;2024-03-06T01:06:24;1036.83;;;951.13;;
72547;SDS011;60570;50.848;6.776;2024-03-06T01:07:26;1038.37;;;952.73;;
72547;SDS011;60570;50.848;6.776;2024-03-06T01:08:26;1034.37;;;949.13;;
72547;SDS011;60570;50.848;6.776;2024-03-06T01:09:28;1032.87;;;947.60;;
72547;SDS011;60570;50.848;6.776;2024-03-06T01:10:29;1031.83;;;946.60;;
72547;SDS011;60570;50.848;6.776;2024-03-06T01:11:31;1033.80;;;948.30;;
72547;SDS011;60570;50.848;6.776;2024-03-06T01:12:31;1030.50;;;945.63;;
72547;SDS011;60570;50.848;6.776;2024-03-06T01:13:33;1038.47;;;952.73;;
72547;SDS011;60570;50.848;6.776;2024-03-06T01:14:34;1036.80;;;950.97;;
72547;SDS011;60570;50.848;6.776;2024-03-06T01:15:36;1035.17;;;949.77;;
72547;SDS011;60570;50.848;6.776;2024-03-06T01:16:36;1034.47;;;948.80;;
72547;SDS011;60570;50.848;6.776;2024-03-06T01:17:38;1035.20;;;949.93;;
72547;SDS011;60570;50.848;6.776;2024-03-06T01:18:39;1033.67;;;948.13;;
72547;SDS011;60570;50.848;6.776;2024-03-06T01:19:41;1034.00;;;948.57;;
72547;SDS011;60570;50.848;6.776;2024-03-06T01:20:44;1035.97;;;950.40;;
72547;SDS011;60570;50.848;6.776;2024-03-06T01:21:46;1036.40;;;950.93;;
72547;SDS011;60570;50.848;6.776;2024-03-06T01:23:50;1032.43;;;949.67;;
72547;SDS011;60570;50.848;6.776;2024-03-06T01:24:50;1031.27;;;947.13;;
72547;SDS011;60570;50.848;6.776;2024-03-06T01:25:52;1030.60;;;946.23;;
72547;SDS011;60570;50.848;6.776;2024-03-06T01:26:53;1035.70;;;950.70;;
72547;SDS011;60570;50.848;6.776;2024-03-06T01:27:55;1028.33;;;943.73;;
72547;SDS011;60570;50.848;6.776;2024-03-06T01:28:55;1033.90;;;949.00;;
72547;SDS011;60570;50.848;6.776;2024-03-06T01:29:57;1027.40;;;943.07;;
72547;SDS011;60570;50.848;6.776;2024-03-06T01:30:58;1036.77;;;951.63;;
72547;SDS011;60570;50.848;6.776;2024-03-06T01:31:59;1031.73;;;946.93;;
72547;SDS011;60570;50.848;6.776;2024-03-06T01:33:01;1030.70;;;946.27;;
72547;SDS011;60570;50.848;6.776;2024-03-06T01:34:01;1034.07;;;949.30;;
72547;SDS011;60570;50.848;6.776;2024-03-06T01:35:03;1034.87;;;949.97;;
72547;SDS011;60570;50.848;6.776;2024-03-06T01:37:08;1030.63;;;947.37;;
72547;SDS011;60570;50.848;6.776;2024-03-06T01:38:09;1028.47;;;944.97;;
72547;SDS011;60570;50.848;6.776;2024-03-06T01:39:10;1032.93;;;948.87;;
72547;SDS011;60570;50.848;6.776;2024-03-06T01:41:13;1029.07;;;946.50;;
72547;SDS011;60570;50.848;6.776;2024-03-06T01:42:16;1026.50;;;943.47;;
72547;SDS011;60570;50.848;6.776;2024-03-06T01:43:18;1033.23;;;949.20;;
72547;SDS011;60570;50.848;6.776;2024-03-06T01:44:22;1033.90;;;949.70;;
72547;SDS011;60570;50.848;6.776;2024-03-06T01:45:22;1032.17;;;948.00;;
72547;SDS011;60570;50.848;6.776;2024-03-06T01:46:24;1025.70;;;942.17;;
72547;SDS011;60570;50.848;6.776;2024-03-06T01:47:25;1032.17;;;947.67;;
72547;SDS011;60570;50.848;6.776;2024-03-06T01:48:26;1031.87;;;947.50;;
72547;SDS011;60570;50.848;6.776;2024-03-06T01:49:29;1035.33;;;950.37;;
72547;SDS011;60570;50.848;6.776;2024-03-06T01:50:31;1034.13;;;949.47;;
72547;SDS011;60570;50.848;6.776;2024-03-06T01:51:34;1033.60;;;948.93;;
72547;SDS011;60570;50.848;6.776;2024-03-06T01:52:35;1040.23;;;955.70;;
72547;SDS011;60570;50.848;6.776;2024-03-06T01:53:38;1036.53;;;952.13;;
72547;SDS011;60570;50.848;6.776;2024-03-06T01:54:39;1030.67;;;946.30;;
72547;SDS011;60570;50.848;6.776;2024-03-06T01:55:41;1028.27;;;944.00;;
72547;SDS011;60570;50.848;6.776;2024-03-06T01:56:44;1037.73;;;952.60;;
72547;SDS011;60570;50.848;6.776;2024-03-06T01:57:47;1034.23;;;949.53;;
72547;SDS011;60570;50.848;6.776;2024-03-06T01:58:48;1032.40;;;947.63;;
72547;SDS011;60570;50.848;6.776;2024-03-06T01:59:50;1033.40;;;948.57;;
72547;SDS011;60570;50.848;6.776;2024-03-06T02:00:51;1033.63;;;949.03;;
72547;SDS011;60570;50.848;6.776;2024-03-06T02:01:53;1034.80;;;950.17;;
72547;SDS011;60570;50.848;6.776;2024-03-06T02:02:54;1037.03;;;951.63;;
72547;SDS011;60570;50.848;6.776;2024-03-06T02:03:55;1033.47;;;948.37;;
72547;SDS011;60570;50.848;6.776;2024-03-06T02:06:00;1021.30;;;939.37;;
72547;SDS011;60570;50.848;6.776;2024-03-06T02:07:05;1025.63;;;942.73;;
72547;SDS011;60570;50.848;6.776;2024-03-06T02:08:09;1030.10;;;946.43;;
72547;SDS011;60570;50.848;6.776;2024-03-06T02:09:09;1034.70;;;950.47;;
72547;SDS011;60570;50.848;6.776;2024-03-06T02:10:13;1032.50;;;948.23;;
72547;SDS011;60570;50.848;6.776;2024-03-06T02:11:15;1034.07;;;949.70;;
72547;SDS011;60570;50.848;6.776;2024-03-06T02:12:17;1030.17;;;946.07;;
72547;SDS011;60570;50.848;6.776;2024-03-06T02:13:18;1034.23;;;949.70;;
72547;SDS011;60570;50.848;6.776;2024-03-06T02:14:19;1029.90;;;945.97;;
72547;SDS011;60570;50.848;6.776;2024-03-06T02:15:21;1033.07;;;948.47;;
72547;SDS011;60570;50.848;6.776;2024-03-06T02:16:22;1027.10;;;943.07;;
72547;SDS011;60570;50.848;6.776;2024-03-06T02:17:23;1030.37;;;946.17;;
72547;SDS011;60570;50.848;6.776;2024-03-06T02:18:25;1028.37;;;944.17;;
72547;SDS011;60570;50.848;6.776;2024-03-06T02:19:36;1033.13;;;948.30;;
72547;SDS011;60570;50.848;6.776;2024-03-06T02:20:40;1034.70;;;950.37;;
72547;SDS011;60570;50.848;6.776;2024-03-06T02:21:41;1034.37;;;949.97;;
72547;SDS011;60570;50.848;6.776;2024-03-06T02:22:43;1037.00;;;952.43;;
72547;SDS011;60570;50.848;6.776;2024-03-06T02:23:43;1035.97;;;951.20;;
72547;SDS011;60570;50.848;6.776;2024-03-06T02:24:45;1036.13;;;950.90;;
72547;SDS011;60570;50.848;6.776;2024-03-06T02:25:49;1033.73;;;949.27;;
72547;SDS011;60570;50.848;6.776;2024-03-06T02:26:50;1031.90;;;947.40;;
72547;SDS011;60570;50.848;6.776;2024-03-06T02:27:52;1031.80;;;947.23;;
72547;SDS011;60570;50.848;6.776;2024-03-06T02:28:53;1030.20;;;945.73;;
72547;SDS011;60570;50.848;6.776;2024-03-06T02:29:56;1031.87;;;947.17;;
72547;SDS011;60570;50.848;6.776;2024-03-06T02:30:56;1032.63;;;948.10;;
72547;SDS011;60570;50.848;6.776;2024-03-06T02:31:59;1033.87;;;949.07;;
72547;SDS011;60570;50.848;6.776;2024-03-06T02:33:01;1036.47;;;952.43;;
72547;SDS011;60570;50.848;6.776;2024-03-06T02:34:04;1029.27;;;945.07;;
72547;SDS011;60570;50.848;6.776;2024-03-06T02:35:06;1033.70;;;949.13;;
72547;SDS011;60570;50.848;6.776;2024-03-06T02:36:11;1031.93;;;947.43;;
72547;SDS011;60570;50.848;6.776;2024-03-06T02:38:12;1024.43;;;942.37;;
72547;SDS011;60570;50.848;6.776;2024-03-06T02:39:14;1030.13;;;946.63;;
72547;SDS011;60570;50.848;6.776;2024-03-06T02:40:15;1032.47;;;948.70;;
72547;SDS011;60570;50.848;6.776;2024-03-06T02:41:17;1027.87;;;944.13;;
72547;SDS011;60570;50.848;6.776;2024-03-06T02:42:17;1034.60;;;950.70;;
72547;SDS011;60570;50.848;6.776;2024-03-06T02:43:19;1034.47;;;950.23;;
72547;SDS011;60570;50.848;6.776;2024-03-06T02:44:20;1033.83;;;949.17;;
72547;SDS011;60570;50.848;6.776;2024-03-06T02:45:22;1036.20;;;952.47;;
72547;SDS011;60570;50.848;6.776;2024-03-06T02:46:22;1031.30;;;947.07;;
72547;SDS011;60570;50.848;6.776;2024-03-06T02:47:24;1033.37;;;948.90;;
72547;SDS011;60570;50.848;6.776;2024-03-06T02:48:25;1031.07;;;946.70;;
72547;SDS011;60570;50.848;6.776;2024-03-06T02:49:26;1035.37;;;950.80;;
72547;SDS011;60570;50.848;6.776;2024-03-06T02:50:27;1034.43;;;949.83;;
72547;SDS011;60570;50.848;6.776;2024-03-06T02:51:30;1033.97;;;949.70;;
72547;SDS011;60570;50.848;6.776;2024-03-06T02:53:31;1024.57;;;942.50;;
72547;SDS011;60570;50.848;6.776;2024-03-06T02:54:33;1026.37;;;943.50;;
72547;SDS011;60570;50.848;6.776;2024-03-06T02:55:34;1024.20;;;941.30;;
72547;SDS011;60570;50.848;6.776;2024-03-06T02:56:36;1028.93;;;945.33;;
72547;SDS011;60570;50.848;6.776;2024-03-06T02:57:37;1023.87;;;941.03;;
72547;SDS011;60570;50.848;6.776;2024-03-06T02:58:38;1030.30;;;946.73;;
72547;SDS011;60570;50.848;6.776;2024-03-06T02:59:39;1028.07;;;944.37;;
72547;SDS011;60570;50.848;6.776;2024-03-06T03:00:40;1029.07;;;945.27;;
72547;SDS011;60570;50.848;6.776;2024-03-06T03:01:42;1031.37;;;947.50;;
72547;SDS011;60570;50.848;6.776;2024-03-06T03:02:42;1030.50;;;946.53;;
72547;SDS011;60570;50.848;6.776;2024-03-06T03:03:44;1033.63;;;949.27;;
72547;SDS011;60570;50.848;6.776;2024-03-06T03:04:47;1029.13;;;945.30;;
72547;SDS011;60570;50.848;6.776;2024-03-06T03:05:49;1030.70;;;946.87;;
72547;SDS011;60570;50.848;6.776;2024-03-06T03:06:51;1030.80;;;946.83;;
72547;SDS011;60570;50.848;6.776;2024-03-06T03:07:53;1033.63;;;949.33;;
72547;SDS011;60570;50.848;6.776;2024-03-06T03:08:54;1032.27;;;948.13;;
72547;SDS011;60570;50.848;6.776;2024-03-06T03:10:57;1023.80;;;941.77;;
72547;SDS011;60570;50.848;6.776;2024-03-06T03:11:57;1028.27;;;945.43;;
72547;SDS011;60570;50.848;6.776;2024-03-06T03:12:59;1026.37;;;943.20;;
72547;SDS011;60570;50.848;6.776;2024-03-06T03:14:00;1030.60;;;947.20;;
72547;SDS011;60570;50.848;6.776;2024-03-06T03:15:01;1030.90;;;947.33;;
72547;SDS011;60570;50.848;6.776;2024-03-06T03:16:02;1036.00;;;951.60;;
72547;SDS011;60570;50.848;6.776;2024-03-06T03:17:05;1030.47;;;946.67;;
72547;SDS011;60570;50.848;6.776;2024-03-06T03:18:05;1034.07;;;949.83;;
72547;SDS011;60570;50.848;6.776;2024-03-06T03:19:07;1034.53;;;950.47;;
72547;SDS011;60570;50.848;6.776;2024-03-06T03:20:08;1034.23;;;950.13;;
72547;SDS011;60570;50.848;6.776;2024-03-06T03:21:12;1031.03;;;947.30;;
72547;SDS011;60570;50.848;6.776;2024-03-06T03:22:14;1031.20;;;947.20;;
72547;SDS011;60570;50.848;6.776;2024-03-06T03:23:16;1023.10;;;939.90;;
72547;SDS011;60570;50.848;6.776;2024-03-06T03:24:22;1028.20;;;944.93;;
72547;SDS011;60570;50.848;6.776;2024-03-06T03:25:25;1032.77;;;949.10;;
72547;SDS011;60570;50.848;6.776;2024-03-06T03:26:26;1031.77;;;948.10;;
72547;SDS011;60570;50.848;6.776;2024-03-06T03:27:27;1030.47;;;946.90;;
72547;SDS011;60570;50.848;6.776;2024-03-06T03:28:28;1029.43;;;945.70;;
72547;SDS011;60570;50.848;6.776;2024-03-06T03:29:29;1032.97;;;948.97;;
72547;SDS011;60570;50.848;6.776;2024-03-06T03:30:31;1033.57;;;949.43;;
72547;SDS011;60570;50.848;6.776;2024-03-06T03:31:32;1030.30;;;946.57;;
72547;SDS011;60570;50.848;6.776;2024-03-06T03:32:36;1032.13;;;948.20;;
72547;SDS011;60570;50.848;6.776;2024-03-06T03:33:38;1031.20;;;947.27;;
72547;SDS011;60570;50.848;6.776;2024-03-06T03:34:40;1029.13;;;945.33;;
72547;SDS011;60570;50.848;6.776;2024-03-06T03:35:41;1032.60;;;948.73;;
72547;SDS011;60570;50.848;6.776;2024-03-06T03:36:42;1026.40;;;943.07;;
72547;SDS011;60570;50.848;6.776;2024-03-06T03:37:45;1034.33;;;949.73;;
72547;SDS011;60570;50.848;6.776;2024-03-06T03:38:46;1029.63;;;945.60;;
72547;SDS011;60570;50.848;6.776;2024-03-06T03:39:47;1030.70;;;946.80;;
72547;SDS011;60570;50.848;6.776;2024-03-06T03:40:49;1027.23;;;943.67;;
72547;SDS011;60570;50.848;6.776;2024-03-06T03:41:50;1029.83;;;946.20;;
72547;SDS011;60570;50.848;6.776;2024-03-06T03:42:52;1031.60;;;947.73;;
72547;SDS011;60570;50.848;6.776;2024-03-06T03:43:52;1029.50;;;945.67;;
72547;SDS011;60570;50.848;6.776;2024-03-06T03:44:53;1033.17;;;949.07;;
72547;SDS011;60570;50.848;6.776;2024-03-06T03:45:55;1025.53;;;942.00;;
72547;SDS011;60570;50.848;6.776;2024-03-06T03:46:56;1029.97;;;946.27;;
72547;SDS011;60570;50.848;6.776;2024-03-06T03:47:57;1031.20;;;947.20;;
72547;SDS011;60570;50.848;6.776;2024-03-06T03:48:58;1033.97;;;950.10;;
72547;SDS011;60570;50.848;6.776;2024-03-06T03:49:59;1029.03;;;945.27;;
72547;SDS011;60570;50.848;6.776;2024-03-06T03:51:01;1031.07;;;947.20;;
72547;SDS011;60570;50.848;6.776;2024-03-06T03:52:02;1029.23;;;945.60;;
72547;SDS011;60570;50.848;6.776;2024-03-06T03:53:06;1031.57;;;947.33;;
72547;SDS011;60570;50.848;6.776;2024-03-06T03:55:07;1021.37;;;940.07;;
72547;SDS011;60570;50.848;6.776;2024-03-06T03:56:09;1023.80;;;941.43;;
72547;SDS011;60570;50.848;6.776;2024-03-06T03:57:10;1025.93;;;943.00;;
72547;SDS011;60570;50.848;6.776;2024-03-06T03:58:11;1025.43;;;942.63;;
72547;SDS011;60570;50.848;6.776;2024-03-06T03:59:12;1026.47;;;943.50;;
72547;SDS011;60570;50.848;6.776;2024-03-06T04:00:14;1027.43;;;944.10;;
72547;SDS011;60570;50.848;6.776;2024-03-06T04:01:15;1025.77;;;942.67;;
72547;SDS011;60570;50.848;6.776;2024-03-06T04:02:17;1025.43;;;942.30;;
72547;SDS011;60570;50.848;6.776;2024-03-06T04:03:17;1031.27;;;947.43;;
72547;SDS011;60570;50.848;6.776;2024-03-06T04:04:19;1025.53;;;942.13;;
72547;SDS011;60570;50.848;6.776;2024-03-06T04:05:22;1025.30;;;942.13;;
72547;SDS011;60570;50.848;6.776;2024-03-06T04:06:24;1030.30;;;946.83;;
72547;SDS011;60570;50.848;6.776;2024-03-06T04:07:25;1026.97;;;943.43;;
72547;SDS011;60570;50.848;6.776;2024-03-06T04:08:28;1028.23;;;944.57;;
72547;SDS011;60570;50.848;6.776;2024-03-06T04:09:29;1024.03;;;941.13;;
72547;SDS011;60570;50.848;6.776;2024-03-06T04:11:31;1016.43;;;935.60;;
72547;SDS011;60570;50.848;6.776;2024-03-06T04:12:36;1023.70;;;941.60;;
72547;SDS011;60570;50.848;6.776;2024-03-06T04:13:37;1027.07;;;944.60;;
72547;SDS011;60570;50.848;6.776;2024-03-06T04:14:39;1024.23;;;941.80;;
72547;SDS011;60570;50.848;6.776;2024-03-06T04:15:40;1023.73;;;940.97;;
72547;SDS011;60570;50.848;6.776;2024-03-06T04:16:42;1027.27;;;944.27;;
72547;SDS011;60570;50.848;6.776;2024-03-06T04:17:42;1027.53;;;944.50;;
72547;SDS011;60570;50.848;6.776;2024-03-06T04:18:43;1031.80;;;948.40;;
72547;SDS011;60570;50.848;6.776;2024-03-06T04:19:45;1028.03;;;944.90;;
72547;SDS011;60570;50.848;6.776;2024-03-06T04:20:48;1025.10;;;942.20;;
72547;SDS011;60570;50.848;6.776;2024-03-06T04:21:50;1030.70;;;947.67;;
72547;SDS011;60570;50.848;6.776;2024-03-06T04:22:51;1030.40;;;947.37;;
72547;SDS011;60570;50.848;6.776;2024-03-06T04:23:54;1030.80;;;947.20;;
72547;SDS011;60570;50.848;6.776;2024-03-06T04:24:54;1027.83;;;944.67;;
72547;SDS011;60570;50.848;6.776;2024-03-06T04:25:58;1029.87;;;946.33;;
72547;SDS011;60570;50.848;6.776;2024-03-06T04:26:59;1026.67;;;943.53;;
72547;SDS011;60570;50.848;6.776;2024-03-06T04:28:01;1025.27;;;942.37;;
72547;SDS011;60570;50.848;6.776;2024-03-06T04:29:02;1033.00;;;949.37;;
72547;SDS011;60570;50.848;6.776;2024-03-06T04:30:04;1028.50;;;945.30;;
72547;SDS011;60570;50.848;6.776;2024-03-06T04:31:06;1030.20;;;946.77;;
72547;SDS011;60570;50.848;6.776;2024-03-06T04:32:10;1024.03;;;941.20;;
72547;SDS011;60570;50.848;6.776;2024-03-06T04:33:12;1031.33;;;947.87;;
72547;SDS011;60570;50.848;6.776;2024-03-06T04:34:15;1026.57;;;943.67;;
72547;SDS011;60570;50.848;6.776;2024-03-06T04:35:17;1029.67;;;946.60;;
72547;SDS011;60570;50.848;6.776;2024-03-06T04:36:21;1024.73;;;941.77;;
72547;SDS011;60570;50.848;6.776;2024-03-06T04:37:22;1030.00;;;946.83;;
72547;SDS011;60570;50.848;6.776;2024-03-06T04:38:23;1025.30;;;942.37;;
72547;SDS011;60570;50.848;6.776;2024-03-06T04:40:27;1018.63;;;937.77;;
72547;SDS011;60570;50.848;6.776;2024-03-06T04:41:29;1024.93;;;943.30;;
72547;SDS011;60570;50.848;6.776;2024-03-06T04:42:30;1024.40;;;942.07;;
72547;SDS011;60570;50.848;6.776;2024-03-06T04:43:30;1029.13;;;946.63;;
72547;SDS011;60570;50.848;6.776;2024-03-06T04:44:33;1030.00;;;947.23;;
72547;SDS011;60570;50.848;6.776;2024-03-06T04:45:34;1026.20;;;943.57;;
72547;SDS011;60570;50.848;6.776;2024-03-06T04:46:36;1032.10;;;949.00;;
72547;SDS011;60570;50.848;6.776;2024-03-06T04:47:37;1030.93;;;947.70;;
72547;SDS011;60570;50.848;6.776;2024-03-06T04:48:38;1029.37;;;946.23;;
72547;SDS011;60570;50.848;6.776;2024-03-06T04:49:39;1031.00;;;947.97;;
72547;SDS011;60570;50.848;6.776;2024-03-06T04:50:40;1026.47;;;943.47;;
72547;SDS011;60570;50.848;6.776;2024-03-06T04:51:42;1031.37;;;948.17;;
72547;SDS011;60570;50.848;6.776;2024-03-06T04:52:43;1032.43;;;948.80;;
72547;SDS011;60570;50.848;6.776;2024-03-06T04:53:45;1034.53;;;951.07;;
72547;SDS011;60570;50.848;6.776;2024-03-06T04:54:48;1031.47;;;948.10;;
72547;SDS011;60570;50.848;6.776;2024-03-06T04:55:49;1024.73;;;942.03;;
72547;SDS011;60570;50.848;6.776;2024-03-06T04:56:50;1026.17;;;943.03;;
72547;SDS011;60570;50.848;6.776;2024-03-06T04:57:51;1024.97;;;942.10;;
72547;SDS011;60570;50.848;6.776;2024-03-06T04:58:54;1028.63;;;945.70;;
72547;SDS011;60570;50.848;6.776;2024-03-06T04:59:54;1029.93;;;946.60;;
72547;SDS011;60570;50.848;6.776;2024-03-06T05:00:56;1029.00;;;945.70;;
72547;SDS011;60570;50.848;6.776;2024-03-06T05:01:57;1030.13;;;946.73;;
72547;SDS011;60570;50.848;6.776;2024-03-06T05:02:58;1026.37;;;943.43;;
72547;SDS011;60570;50.848;6.776;2024-03-06T05:04:00;1031.83;;;948.63;;
72547;SDS011;60570;50.848;6.776;2024-03-06T05:05:01;1026.17;;;943.17;;
72547;SDS011;60570;50.848;6.776;2024-03-06T05:06:03;1027.23;;;944.10;;
72547;SDS011;60570;50.848;6.776;2024-03-06T05:07:05;1028.47;;;945.40;;
72547;SDS011;60570;50.848;6.776;2024-03-06T05:08:06;1032.27;;;949.03;;
72547;SDS011;60570;50.848;6.776;2024-03-06T05:09:09;1026.27;;;942.97;;
72547;SDS011;60570;50.848;6.776;2024-03-06T05:10:13;1030.47;;;946.93;;
72547;SDS011;60570;50.848;6.776;2024-03-06T05:11:15;1023.73;;;941.07;;
72547;SDS011;60570;50.848;6.776;2024-03-06T05:12:16;1032.93;;;949.67;;
72547;SDS011;60570;50.848;6.776;2024-03-06T05:13:18;1027.47;;;944.13;;
72547;SDS011;60570;50.848;6.776;2024-03-06T05:14:19;1027.87;;;944.57;;
72547;SDS011;60570;50.848;6.776;2024-03-06T05:15:20;1029.77;;;946.67;;
72547;SDS011;60570;50.848;6.776;2024-03-06T05:16:22;1031.73;;;948.23;;
72547;SDS011;60570;50.848;6.776;2024-03-06T05:17:24;1028.70;;;945.53;;
72547;SDS011;60570;50.848;6.776;2024-03-06T05:18:25;1028.47;;;945.10;;
72547;SDS011;60570;50.848;6.776;2024-03-06T05:19:26;1031.87;;;948.37;;
72547;SDS011;60570;50.848;6.776;2024-03-06T05:20:32;1031.17;;;948.00;;
72547;SDS011;60570;50.848;6.776;2024-03-06T05:21:32;1030.97;;;947.37;;
72547;SDS011;60570;50.848;6.776;2024-03-06T05:22:35;1026.17;;;943.30;;
72547;SDS011;60570;50.848;6.776;2024-03-06T05:23:36;1028.33;;;944.97;;
72547;SDS011;60570;50.848;6.776;2024-03-06T05:24:38;1031.07;;;948.47;;
72547;SDS011;60570;50.848;6.776;2024-03-06T05:25:40;1027.30;;;944.10;;
72547;SDS011;60570;50.848;6.776;2024-03-06T05:26:42;1025.27;;;942.47;;
72547;SDS011;60570;50.848;6.776;2024-03-06T05:27:42;1028.27;;;945.07;;
72547;SDS011;60570;50.848;6.776;2024-03-06T05:28:44;1031.50;;;948.00;;
72547;SDS011;60570;50.848;6.776;2024-03-06T05:29:45;1030.13;;;946.63;;
72547;SDS011;60570;50.848;6.776;2024-03-06T05:30:45;1031.57;;;947.80;;
72547;SDS011;60570;50.848;6.776;2024-03-06T05:32:48;1022.30;;;941.27;;
72547;SDS011;60570;50.848;6.776;2024-03-06T05:33:50;1027.23;;;944.93;;
72547;SDS011;60570;50.848;6.776;2024-03-06T05:34:50;1027.50;;;944.93;;
72547;SDS011;60570;50.848;6.776;2024-03-06T05:35:52;1021.73;;;939.40;;
72547;SDS011;60570;50.848;6.776;2024-03-06T05:36:53;1026.30;;;943.73;;
72547;SDS011;60570;50.848;6.776;2024-03-06T05:37:54;1032.13;;;949.00;;
72547;SDS011;60570;50.848;6.776;2024-03-06T05:38:57;1023.60;;;941.10;;
72547;SDS011;60570;50.848;6.776;2024-03-06T05:39:57;1028.40;;;945.37;;
72547;SDS011;60570;50.848;6.776;2024-03-06T05:40:59;1028.30;;;945.37;;
72547;SDS011;60570;50.848;6.776;2024-03-06T05:42:02;1030.23;;;947.00;;
72547;SDS011;60570;50.848;6.776;2024-03-06T05:43:04;1025.37;;;942.63;;
72547;SDS011;60570;50.848;6.776;2024-03-06T05:44:05;1030.70;;;947.67;;
72547;SDS011;60570;50.848;6.776;2024-03-06T05:45:06;1027.60;;;944.70;;
72547;SDS011;60570;50.848;6.776;2024-03-06T05:46:10;1030.87;;;947.83;;
72547;SDS011;60570;50.848;6.776;2024-03-06T05:47:11;1027.90;;;945.10;;
72547;SDS011;60570;50.848;6.776;2024-03-06T05:48:13;1028.07;;;944.90;;
72547;SDS011;60570;50.848;6.776;2024-03-06T05:49:14;1030.27;;;947.30;;
72547;SDS011;60570;50.848;6.776;2024-03-06T05:50:16;1025.03;;;942.37;;
72547;SDS011;60570;50.848;6.776;2024-03-06T05:51:17;1026.93;;;943.93;;
72547;SDS011;60570;50.848;6.776;2024-03-06T05:52:19;1025.83;;;942.83;;
72547;SDS011;60570;50.848;6.776;2024-03-06T05:53:19;1027.23;;;944.10;;
72547;SDS011;60570;50.848;6.776;2024-03-06T05:54:20;1031.87;;;948.67;;
72547;SDS011;60570;50.848;6.776;2024-03-06T05:55:22;1028.17;;;945.23;;
72547;SDS011;60570;50.848;6.776;2024-03-06T05:56:24;1026.93;;;944.17;;